sensor_id;sensor_type;location;lat;lon;timestamp;temperature;humidity
8910;DHT22;4490;49.072;8.804;2022-09-29T00:00:51;8.40;99.60
8910;DHT22;4490;49.072;8.804;2022-09-29T00:03:17;8.40;99.80
8910;DHT22;4490;49.072;8.804;2022-09-29T00:05:47;8.30;99.90
8910;DHT22;4490;49.072;8.804;2022-09-29T00:08:14;8.30;99.90
8910;DHT22;4490;49.072;8.804;2022-09-29T00:10:40;8.30;99.90
8910;DHT22;4490;49.072;8.804;2022-09-29T00:13:06;8.30;99.90
8910;DHT22;4490;49.072;8.804;2022-09-29T00:15:32;8.30;99.90
8910;DHT22;4490;49.072;8.804;2022-09-29T00:17:57;8.20;99.90
8910;DHT22;4490;49.072;8.804;2022-09-29T00:20:23;8.20;99.90
8910;DHT22;4490;49.072;8.804;2022-09-29T00:22:49;8.20;99.90
8910;DHT22;4490;49.072;8.804;2022-09-29T00:25:16;8.20;99.90
8910;DHT22;4490;49.072;8.804;2022-09-29T00:27:42;8.20;99.90
8910;DHT22;4490;49.072;8.804;2022-09-29T00:30:08;8.20;99.90
8910;DHT22;4490;49.072;8.804;2022-09-29T00:32:34;8.20;99.90
8910;DHT22;4490;49.072;8.804;2022-09-29T00:35:00;8.20;99.90
8910;DHT22;4490;49.072;8.804;2022-09-29T00:37:25;8.20;99.90
8910;DHT22;4490;49.072;8.804;2022-09-29T00:39:51;8.20;99.90
8910;DHT22;4490;49.072;8.804;2022-09-29T00:42:19;8.20;99.90
8910;DHT22;4490;49.072;8.804;2022-09-29T00:45:16;8.20;99.90
8910;DHT22;4490;49.072;8.804;2022-09-29T00:47:45;8.20;99.90
8910;DHT22;4490;49.072;8.804;2022-09-29T00:52:43;8.20;99.90
8910;DHT22;4490;49.072;8.804;2022-09-29T00:55:27;8.20;99.90
8910;DHT22;4490;49.072;8.804;2022-09-29T00:58:04;8.20;99.90
8910;DHT22;4490;49.072;8.804;2022-09-29T01:00:31;8.20;99.90
8910;DHT22;4490;49.072;8.804;2022-09-29T01:03:01;8.10;99.90
8910;DHT22;4490;49.072;8.804;2022-09-29T01:05:36;8.20;99.90
8910;DHT22;4490;49.072;8.804;2022-09-29T01:11:00;8.20;99.90
8910;DHT22;4490;49.072;8.804;2022-09-29T01:13:26;8.20;99.90
8910;DHT22;4490;49.072;8.804;2022-09-29T01:15:53;8.20;99.90
8910;DHT22;4490;49.072;8.804;2022-09-29T01:18:19;8.20;99.90
8910;DHT22;4490;49.072;8.804;2022-09-29T01:20:56;8.20;99.90
8910;DHT22;4490;49.072;8.804;2022-09-29T01:26:29;8.30;99.90
8910;DHT22;4490;49.072;8.804;2022-09-29T01:32:04;8.40;99.90
8910;DHT22;4490;49.072;8.804;2022-09-29T01:34:57;8.40;99.90
8910;DHT22;4490;49.072;8.804;2022-09-29T01:37:47;8.50;99.90
8910;DHT22;4490;49.072;8.804;2022-09-29T01:40:16;8.50;99.90
8910;DHT22;4490;49.072;8.804;2022-09-29T01:43:03;8.50;99.90
8910;DHT22;4490;49.072;8.804;2022-09-29T01:45:36;8.50;99.90
8910;DHT22;4490;49.072;8.804;2022-09-29T01:48:09;8.50;99.90
8910;DHT22;4490;49.072;8.804;2022-09-29T01:50:49;8.60;99.90
8910;DHT22;4490;49.072;8.804;2022-09-29T01:53:28;8.60;99.90
8910;DHT22;4490;49.072;8.804;2022-09-29T01:56:01;8.60;99.90
8910;DHT22;4490;49.072;8.804;2022-09-29T01:58:34;8.60;99.90
8910;DHT22;4490;49.072;8.804;2022-09-29T02:01:05;8.70;99.90
8910;DHT22;4490;49.072;8.804;2022-09-29T02:03:42;8.70;99.90
8910;DHT22;4490;49.072;8.804;2022-09-29T02:06:16;8.70;99.90
8910;DHT22;4490;49.072;8.804;2022-09-29T02:08:49;8.70;99.90
8910;DHT22;4490;49.072;8.804;2022-09-29T02:11:17;8.70;99.90
8910;DHT22;4490;49.072;8.804;2022-09-29T02:13:54;8.80;99.90
8910;DHT22;4490;49.072;8.804;2022-09-29T02:16:26;8.80;99.90
8910;DHT22;4490;49.072;8.804;2022-09-29T02:19:10;8.80;99.90
8910;DHT22;4490;49.072;8.804;2022-09-29T02:21:38;8.80;99.90
8910;DHT22;4490;49.072;8.804;2022-09-29T02:24:04;8.80;99.90
8910;DHT22;4490;49.072;8.804;2022-09-29T02:26:32;8.80;99.90
8910;DHT22;4490;49.072;8.804;2022-09-29T02:29:00;8.80;99.90
8910;DHT22;4490;49.072;8.804;2022-09-29T02:31:26;8.80;99.90
8910;DHT22;4490;49.072;8.804;2022-09-29T02:33:51;8.80;99.90
8910;DHT22;4490;49.072;8.804;2022-09-29T02:48:37;8.90;99.90
8910;DHT22;4490;49.072;8.804;2022-09-29T02:51:20;8.90;99.90
8910;DHT22;4490;49.072;8.804;2022-09-29T02:59:25;8.90;99.90
8910;DHT22;4490;49.072;8.804;2022-09-29T03:01:53;8.90;99.90
8910;DHT22;4490;49.072;8.804;2022-09-29T03:04:21;8.90;99.90
8910;DHT22;4490;49.072;8.804;2022-09-29T03:06:48;8.90;99.90
8910;DHT22;4490;49.072;8.804;2022-09-29T03:09:13;9.00;99.90
8910;DHT22;4490;49.072;8.804;2022-09-29T03:11:39;9.00;99.90
8910;DHT22;4490;49.072;8.804;2022-09-29T03:14:05;9.00;99.90
8910;DHT22;4490;49.072;8.804;2022-09-29T03:16:34;9.00;99.90
8910;DHT22;4490;49.072;8.804;2022-09-29T03:18:59;9.00;99.90
8910;DHT22;4490;49.072;8.804;2022-09-29T03:21:25;9.00;99.90
8910;DHT22;4490;49.072;8.804;2022-09-29T03:23:51;9.10;99.90
8910;DHT22;4490;49.072;8.804;2022-09-29T03:26:17;9.10;99.90
8910;DHT22;4490;49.072;8.804;2022-09-29T03:28:42;9.10;99.90
8910;DHT22;4490;49.072;8.804;2022-09-29T03:31:09;9.10;99.90
8910;DHT22;4490;49.072;8.804;2022-09-29T03:33:36;9.10;99.90
8910;DHT22;4490;49.072;8.804;2022-09-29T03:36:03;9.10;99.90
8910;DHT22;4490;49.072;8.804;2022-09-29T03:38:30;9.10;99.90
8910;DHT22;4490;49.072;8.804;2022-09-29T03:40:56;9.10;99.90
8910;DHT22;4490;49.072;8.804;2022-09-29T03:43:22;9.10;99.90
8910;DHT22;4490;49.072;8.804;2022-09-29T03:45:49;9.10;99.90
8910;DHT22;4490;49.072;8.804;2022-09-29T03:48:15;9.10;99.90
8910;DHT22;4490;49.072;8.804;2022-09-29T03:50:41;9.10;99.90
8910;DHT22;4490;49.072;8.804;2022-09-29T03:53:07;9.10;99.90
8910;DHT22;4490;49.072;8.804;2022-09-29T03:55:33;9.10;99.90
8910;DHT22;4490;49.072;8.804;2022-09-29T03:57:58;9.10;99.90
8910;DHT22;4490;49.072;8.804;2022-09-29T04:00:24;9.00;99.90
8910;DHT22;4490;49.072;8.804;2022-09-29T04:02:50;9.10;99.90
8910;DHT22;4490;49.072;8.804;2022-09-29T04:05:18;9.10;99.90
8910;DHT22;4490;49.072;8.804;2022-09-29T04:07:43;9.10;99.90
8910;DHT22;4490;49.072;8.804;2022-09-29T04:10:09;9.10;99.90
8910;DHT22;4490;49.072;8.804;2022-09-29T04:12:34;9.00;99.90
8910;DHT22;4490;49.072;8.804;2022-09-29T04:15:00;9.00;99.90
8910;DHT22;4490;49.072;8.804;2022-09-29T04:17:26;9.00;99.90
8910;DHT22;4490;49.072;8.804;2022-09-29T04:19:51;9.00;99.90
8910;DHT22;4490;49.072;8.804;2022-09-29T04:22:17;9.00;99.90
8910;DHT22;4490;49.072;8.804;2022-09-29T04:24:44;8.90;99.90
8910;DHT22;4490;49.072;8.804;2022-09-29T04:27:10;8.90;99.90
8910;DHT22;4490;49.072;8.804;2022-09-29T04:29:35;9.00;99.90
8910;DHT22;4490;49.072;8.804;2022-09-29T04:32:01;9.00;99.90
8910;DHT22;4490;49.072;8.804;2022-09-29T04:34:26;9.00;99.90
8910;DHT22;4490;49.072;8.804;2022-09-29T04:36:52;8.90;99.90
8910;DHT22;4490;49.072;8.804;2022-09-29T04:39:18;8.90;99.90
8910;DHT22;4490;49.072;8.804;2022-09-29T04:41:44;8.80;99.90
8910;DHT22;4490;49.072;8.804;2022-09-29T04:44:10;8.70;99.90
8910;DHT22;4490;49.072;8.804;2022-09-29T04:46:35;8.70;99.90
8910;DHT22;4490;49.072;8.804;2022-09-29T04:49:01;8.60;99.90
8910;DHT22;4490;49.072;8.804;2022-09-29T04:51:27;8.60;99.90
8910;DHT22;4490;49.072;8.804;2022-09-29T04:53:52;8.60;99.90
8910;DHT22;4490;49.072;8.804;2022-09-29T04:56:18;8.60;99.90
8910;DHT22;4490;49.072;8.804;2022-09-29T04:58:44;8.50;99.90
8910;DHT22;4490;49.072;8.804;2022-09-29T05:01:11;8.60;99.90
8910;DHT22;4490;49.072;8.804;2022-09-29T05:03:40;8.50;99.90
8910;DHT22;4490;49.072;8.804;2022-09-29T05:06:08;8.50;99.90
8910;DHT22;4490;49.072;8.804;2022-09-29T05:08:34;8.40;99.90
8910;DHT22;4490;49.072;8.804;2022-09-29T05:11:05;8.40;99.90
8910;DHT22;4490;49.072;8.804;2022-09-29T05:13:31;8.40;99.90
8910;DHT22;4490;49.072;8.804;2022-09-29T05:15:57;8.40;99.90
8910;DHT22;4490;49.072;8.804;2022-09-29T05:18:25;8.30;99.90
8910;DHT22;4490;49.072;8.804;2022-09-29T05:20:52;8.20;99.90
8910;DHT22;4490;49.072;8.804;2022-09-29T05:23:18;8.20;99.90
8910;DHT22;4490;49.072;8.804;2022-09-29T05:25:44;8.10;99.90
8910;DHT22;4490;49.072;8.804;2022-09-29T05:28:10;8.10;99.90
8910;DHT22;4490;49.072;8.804;2022-09-29T05:30:37;8.00;99.90
8910;DHT22;4490;49.072;8.804;2022-09-29T05:33:03;8.00;99.90
8910;DHT22;4490;49.072;8.804;2022-09-29T05:35:29;8.00;99.90
8910;DHT22;4490;49.072;8.804;2022-09-29T05:37:54;8.00;99.90
8910;DHT22;4490;49.072;8.804;2022-09-29T05:40:20;8.00;99.90
8910;DHT22;4490;49.072;8.804;2022-09-29T05:42:48;8.00;99.90
8910;DHT22;4490;49.072;8.804;2022-09-29T05:45:14;7.90;99.90
8910;DHT22;4490;49.072;8.804;2022-09-29T05:47:40;8.00;99.90
8910;DHT22;4490;49.072;8.804;2022-09-29T05:50:08;8.00;99.90
8910;DHT22;4490;49.072;8.804;2022-09-29T05:52:34;8.00;99.90
8910;DHT22;4490;49.072;8.804;2022-09-29T05:55:00;8.10;99.90
8910;DHT22;4490;49.072;8.804;2022-09-29T05:57:25;8.10;99.90
8910;DHT22;4490;49.072;8.804;2022-09-29T05:59:51;8.10;99.90
8910;DHT22;4490;49.072;8.804;2022-09-29T06:02:16;8.10;99.90
8910;DHT22;4490;49.072;8.804;2022-09-29T06:04:43;8.10;99.90
8910;DHT22;4490;49.072;8.804;2022-09-29T06:07:08;8.10;99.90
8910;DHT22;4490;49.072;8.804;2022-09-29T06:09:34;8.20;99.90
8910;DHT22;4490;49.072;8.804;2022-09-29T06:12:01;8.20;99.90
8910;DHT22;4490;49.072;8.804;2022-09-29T06:14:27;8.20;99.90
8910;DHT22;4490;49.072;8.804;2022-09-29T06:16:53;8.10;99.90
8910;DHT22;4490;49.072;8.804;2022-09-29T06:19:18;8.10;99.90
8910;DHT22;4490;49.072;8.804;2022-09-29T06:21:44;8.10;99.90
8910;DHT22;4490;49.072;8.804;2022-09-29T06:24:10;8.20;99.90
8910;DHT22;4490;49.072;8.804;2022-09-29T06:26:36;8.20;99.90
8910;DHT22;4490;49.072;8.804;2022-09-29T06:29:02;8.30;99.90
8910;DHT22;4490;49.072;8.804;2022-09-29T06:31:30;8.30;99.90
8910;DHT22;4490;49.072;8.804;2022-09-29T06:34:01;8.40;99.90
8910;DHT22;4490;49.072;8.804;2022-09-29T06:36:31;8.50;99.90
8910;DHT22;4490;49.072;8.804;2022-09-29T06:39:17;8.50;99.90
8910;DHT22;4490;49.072;8.804;2022-09-29T06:41:43;8.60;99.90
8910;DHT22;4490;49.072;8.804;2022-09-29T06:44:13;8.60;99.90
8910;DHT22;4490;49.072;8.804;2022-09-29T06:46:40;8.70;99.90
8910;DHT22;4490;49.072;8.804;2022-09-29T06:49:05;8.70;99.90
8910;DHT22;4490;49.072;8.804;2022-09-29T06:51:31;8.80;99.90
8910;DHT22;4490;49.072;8.804;2022-09-29T06:53:57;8.90;99.90
8910;DHT22;4490;49.072;8.804;2022-09-29T06:56:22;9.00;99.90
8910;DHT22;4490;49.072;8.804;2022-09-29T06:58:48;9.30;99.90
8910;DHT22;4490;49.072;8.804;2022-09-29T07:01:13;9.60;99.90
8910;DHT22;4490;49.072;8.804;2022-09-29T07:03:39;10.20;99.90
8910;DHT22;4490;49.072;8.804;2022-09-29T07:06:07;10.80;99.90
8910;DHT22;4490;49.072;8.804;2022-09-29T07:08:33;11.10;99.90
8910;DHT22;4490;49.072;8.804;2022-09-29T07:11:04;11.20;99.90
8910;DHT22;4490;49.072;8.804;2022-09-29T07:13:30;11.20;99.90
8910;DHT22;4490;49.072;8.804;2022-09-29T07:16:08;11.10;99.90
8910;DHT22;4490;49.072;8.804;2022-09-29T07:18:36;11.00;99.90
8910;DHT22;4490;49.072;8.804;2022-09-29T07:21:07;11.10;99.90
8910;DHT22;4490;49.072;8.804;2022-09-29T07:23:34;11.10;99.90
8910;DHT22;4490;49.072;8.804;2022-09-29T07:26:01;11.20;99.90
8910;DHT22;4490;49.072;8.804;2022-09-29T07:28:27;11.20;99.90
8910;DHT22;4490;49.072;8.804;2022-09-29T07:31:04;11.20;99.90
8910;DHT22;4490;49.072;8.804;2022-09-29T07:33:31;11.30;99.90
8910;DHT22;4490;49.072;8.804;2022-09-29T07:35:57;11.40;99.90
8910;DHT22;4490;49.072;8.804;2022-09-29T07:38:28;11.50;99.90
8910;DHT22;4490;49.072;8.804;2022-09-29T07:41:02;11.60;99.90
8910;DHT22;4490;49.072;8.804;2022-09-29T07:43:29;11.60;99.90
8910;DHT22;4490;49.072;8.804;2022-09-29T07:45:55;11.60;99.90
8910;DHT22;4490;49.072;8.804;2022-09-29T07:48:21;11.60;99.90
8910;DHT22;4490;49.072;8.804;2022-09-29T07:50:47;11.60;99.90
8910;DHT22;4490;49.072;8.804;2022-09-29T07:53:13;11.70;99.90
8910;DHT22;4490;49.072;8.804;2022-09-29T07:55:39;11.70;99.90
8910;DHT22;4490;49.072;8.804;2022-09-29T07:58:05;11.70;99.90
8910;DHT22;4490;49.072;8.804;2022-09-29T08:00:31;11.80;99.90
8910;DHT22;4490;49.072;8.804;2022-09-29T08:03:04;12.00;99.90
8910;DHT22;4490;49.072;8.804;2022-09-29T08:05:32;12.60;99.90
8910;DHT22;4490;49.072;8.804;2022-09-29T08:08:01;13.10;99.90
8910;DHT22;4490;49.072;8.804;2022-09-29T08:10:28;13.50;99.90
8910;DHT22;4490;49.072;8.804;2022-09-29T08:12:53;13.60;98.70
8910;DHT22;4490;49.072;8.804;2022-09-29T08:15:20;13.50;97.00
8910;DHT22;4490;49.072;8.804;2022-09-29T08:17:45;13.50;98.90
8910;DHT22;4490;49.072;8.804;2022-09-29T08:20:11;13.70;98.40
8910;DHT22;4490;49.072;8.804;2022-09-29T08:22:37;13.90;97.90
8910;DHT22;4490;49.072;8.804;2022-09-29T08:25:03;14.00;96.60
8910;DHT22;4490;49.072;8.804;2022-09-29T08:27:28;14.00;95.50
8910;DHT22;4490;49.072;8.804;2022-09-29T08:29:54;14.00;95.40
8910;DHT22;4490;49.072;8.804;2022-09-29T08:32:22;14.00;96.30
8910;DHT22;4490;49.072;8.804;2022-09-29T08:34:47;14.10;95.50
8910;DHT22;4490;49.072;8.804;2022-09-29T08:37:13;14.30;94.00
8910;DHT22;4490;49.072;8.804;2022-09-29T08:39:38;14.30;93.80
8910;DHT22;4490;49.072;8.804;2022-09-29T08:42:14;14.30;93.30
8910;DHT22;4490;49.072;8.804;2022-09-29T08:44:57;14.30;93.70
8910;DHT22;4490;49.072;8.804;2022-09-29T08:47:29;14.40;93.80
8910;DHT22;4490;49.072;8.804;2022-09-29T08:50:05;14.40;93.80
8910;DHT22;4490;49.072;8.804;2022-09-29T08:52:39;14.50;93.30
8910;DHT22;4490;49.072;8.804;2022-09-29T08:55:33;14.70;92.90
8910;DHT22;4490;49.072;8.804;2022-09-29T08:58:03;14.80;91.80
8910;DHT22;4490;49.072;8.804;2022-09-29T09:08:57;15.80;89.60
8910;DHT22;4490;49.072;8.804;2022-09-29T09:11:35;16.00;88.30
8910;DHT22;4490;49.072;8.804;2022-09-29T09:16:53;16.90;85.10
8910;DHT22;4490;49.072;8.804;2022-09-29T09:22:35;17.80;81.70
8910;DHT22;4490;49.072;8.804;2022-09-29T09:27:46;18.30;79.80
8910;DHT22;4490;49.072;8.804;2022-09-29T09:30:15;18.30;77.10
8910;DHT22;4490;49.072;8.804;2022-09-29T09:32:58;18.30;76.40
8910;DHT22;4490;49.072;8.804;2022-09-29T09:37:58;18.10;74.70
8910;DHT22;4490;49.072;8.804;2022-09-29T09:40:41;17.80;75.20
8910;DHT22;4490;49.072;8.804;2022-09-29T09:43:30;17.70;76.20
8910;DHT22;4490;49.072;8.804;2022-09-29T09:46:21;17.30;76.40
8910;DHT22;4490;49.072;8.804;2022-09-29T09:54:05;16.40;78.10
8910;DHT22;4490;49.072;8.804;2022-09-29T09:59:22;16.00;79.70
8910;DHT22;4490;49.072;8.804;2022-09-29T10:01:49;15.90;79.80
8910;DHT22;4490;49.072;8.804;2022-09-29T10:04:15;15.80;80.20
8910;DHT22;4490;49.072;8.804;2022-09-29T10:06:41;15.80;79.90
8910;DHT22;4490;49.072;8.804;2022-09-29T10:09:12;15.80;80.10
8910;DHT22;4490;49.072;8.804;2022-09-29T10:11:40;15.80;80.10
8910;DHT22;4490;49.072;8.804;2022-09-29T10:14:20;15.80;80.40
8910;DHT22;4490;49.072;8.804;2022-09-29T10:19:58;15.90;80.30
8910;DHT22;4490;49.072;8.804;2022-09-29T10:22:26;15.80;80.80
8910;DHT22;4490;49.072;8.804;2022-09-29T10:27:34;15.80;80.70
8910;DHT22;4490;49.072;8.804;2022-09-29T10:30:01;15.90;81.50
8910;DHT22;4490;49.072;8.804;2022-09-29T10:32:32;15.90;81.20
8910;DHT22;4490;49.072;8.804;2022-09-29T10:37:41;15.90;80.70
8910;DHT22;4490;49.072;8.804;2022-09-29T10:42:38;15.90;80.10
8910;DHT22;4490;49.072;8.804;2022-09-29T10:47:35;16.00;81.00
8910;DHT22;4490;49.072;8.804;2022-09-29T10:50:18;16.00;81.40
8910;DHT22;4490;49.072;8.804;2022-09-29T10:52:59;16.00;81.30
8910;DHT22;4490;49.072;8.804;2022-09-29T10:55:28;16.10;81.20
8910;DHT22;4490;49.072;8.804;2022-09-29T10:57:57;16.00;81.50
8910;DHT22;4490;49.072;8.804;2022-09-29T11:00:38;16.10;81.30
8910;DHT22;4490;49.072;8.804;2022-09-29T11:05:55;16.20;80.00
8910;DHT22;4490;49.072;8.804;2022-09-29T11:08:23;16.20;80.70
8910;DHT22;4490;49.072;8.804;2022-09-29T11:13:40;16.20;80.80
8910;DHT22;4490;49.072;8.804;2022-09-29T11:16:17;16.20;80.80
8910;DHT22;4490;49.072;8.804;2022-09-29T11:18:49;16.20;80.10
8910;DHT22;4490;49.072;8.804;2022-09-29T11:26:57;16.30;78.90
8910;DHT22;4490;49.072;8.804;2022-09-29T11:29:34;16.30;78.80
8910;DHT22;4490;49.072;8.804;2022-09-29T11:40:12;16.30;78.20
8910;DHT22;4490;49.072;8.804;2022-09-29T11:45:54;16.40;79.00
8910;DHT22;4490;49.072;8.804;2022-09-29T11:51:21;16.40;78.60
8910;DHT22;4490;49.072;8.804;2022-09-29T11:56:32;16.40;78.70
8910;DHT22;4490;49.072;8.804;2022-09-29T12:05:19;16.20;77.00
8910;DHT22;4490;49.072;8.804;2022-09-29T12:13:19;16.10;78.40
8910;DHT22;4490;49.072;8.804;2022-09-29T12:16:03;16.10;77.60
8910;DHT22;4490;49.072;8.804;2022-09-29T12:18:55;16.10;77.60
8910;DHT22;4490;49.072;8.804;2022-09-29T12:21:57;16.20;76.80
8910;DHT22;4490;49.072;8.804;2022-09-29T12:24:29;16.10;77.80
8910;DHT22;4490;49.072;8.804;2022-09-29T12:26:56;16.20;78.10
8910;DHT22;4490;49.072;8.804;2022-09-29T12:32:07;16.20;76.90
8910;DHT22;4490;49.072;8.804;2022-09-29T12:34:47;16.10;76.70
8910;DHT22;4490;49.072;8.804;2022-09-29T12:37:24;16.10;76.10
8910;DHT22;4490;49.072;8.804;2022-09-29T12:51:29;16.00;76.60
8910;DHT22;4490;49.072;8.804;2022-09-29T12:56:22;16.10;77.00
8910;DHT22;4490;49.072;8.804;2022-09-29T13:01:46;16.10;78.10
8910;DHT22;4490;49.072;8.804;2022-09-29T13:10:05;16.30;75.80
8910;DHT22;4490;49.072;8.804;2022-09-29T13:12:55;16.20;76.30
8910;DHT22;4490;49.072;8.804;2022-09-29T13:24:05;16.20;77.90
8910;DHT22;4490;49.072;8.804;2022-09-29T13:29:16;16.10;77.80
8910;DHT22;4490;49.072;8.804;2022-09-29T13:31:49;16.10;77.60
8910;DHT22;4490;49.072;8.804;2022-09-29T13:34:31;16.00;76.70
8910;DHT22;4490;49.072;8.804;2022-09-29T13:37:18;16.10;76.80
8910;DHT22;4490;49.072;8.804;2022-09-29T13:39:56;16.10;76.50
8910;DHT22;4490;49.072;8.804;2022-09-29T13:42:40;16.00;76.80
8910;DHT22;4490;49.072;8.804;2022-09-29T13:45:36;15.90;77.40
8910;DHT22;4490;49.072;8.804;2022-09-29T13:50:46;15.80;77.90
8910;DHT22;4490;49.072;8.804;2022-09-29T13:55:54;15.80;77.80
8910;DHT22;4490;49.072;8.804;2022-09-29T13:58:56;15.90;76.00
8910;DHT22;4490;49.072;8.804;2022-09-29T14:01:41;16.00;76.20
8910;DHT22;4490;49.072;8.804;2022-09-29T14:07:13;16.40;76.00
8910;DHT22;4490;49.072;8.804;2022-09-29T14:10:17;16.50;75.70
8910;DHT22;4490;49.072;8.804;2022-09-29T14:12:47;16.70;75.50
8910;DHT22;4490;49.072;8.804;2022-09-29T14:15:17;16.80;74.90
8910;DHT22;4490;49.072;8.804;2022-09-29T14:17:50;16.90;75.80
8910;DHT22;4490;49.072;8.804;2022-09-29T14:20:21;16.90;75.70
8910;DHT22;4490;49.072;8.804;2022-09-29T14:22:56;17.10;74.30
8910;DHT22;4490;49.072;8.804;2022-09-29T14:25:49;17.20;73.30
8910;DHT22;4490;49.072;8.804;2022-09-29T14:28:22;17.30;72.20
8910;DHT22;4490;49.072;8.804;2022-09-29T14:30:51;17.40;72.00
8910;DHT22;4490;49.072;8.804;2022-09-29T14:33:27;17.50;71.90
8910;DHT22;4490;49.072;8.804;2022-09-29T14:38:33;17.50;73.30
8910;DHT22;4490;49.072;8.804;2022-09-29T14:43:54;17.40;73.10
8910;DHT22;4490;49.072;8.804;2022-09-29T15:03:07;17.00;72.90
8910;DHT22;4490;49.072;8.804;2022-09-29T15:05:35;16.90;72.50
8910;DHT22;4490;49.072;8.804;2022-09-29T15:08:02;16.80;73.70
8910;DHT22;4490;49.072;8.804;2022-09-29T15:10:44;16.70;73.60
8910;DHT22;4490;49.072;8.804;2022-09-29T15:13:26;16.60;73.60
8910;DHT22;4490;49.072;8.804;2022-09-29T15:16:09;16.60;72.90
8910;DHT22;4490;49.072;8.804;2022-09-29T15:18:52;16.50;73.40
8910;DHT22;4490;49.072;8.804;2022-09-29T15:24:26;16.40;73.40
8910;DHT22;4490;49.072;8.804;2022-09-29T15:26:54;16.30;74.00
8910;DHT22;4490;49.072;8.804;2022-09-29T15:29:20;16.20;74.70
8910;DHT22;4490;49.072;8.804;2022-09-29T15:31:46;16.20;75.10
8910;DHT22;4490;49.072;8.804;2022-09-29T15:34:20;16.10;75.80
8910;DHT22;4490;49.072;8.804;2022-09-29T15:36:50;16.00;76.60
8910;DHT22;4490;49.072;8.804;2022-09-29T15:42:02;15.90;77.90
8910;DHT22;4490;49.072;8.804;2022-09-29T15:44:29;15.80;78.40
8910;DHT22;4490;49.072;8.804;2022-09-29T15:46:57;15.80;78.70
8910;DHT22;4490;49.072;8.804;2022-09-29T15:49:27;15.70;79.00
8910;DHT22;4490;49.072;8.804;2022-09-29T15:52:05;15.70;79.50
8910;DHT22;4490;49.072;8.804;2022-09-29T15:54:37;15.70;79.90
8910;DHT22;4490;49.072;8.804;2022-09-29T15:57:06;15.60;79.80
8910;DHT22;4490;49.072;8.804;2022-09-29T15:59:52;15.60;79.90
8910;DHT22;4490;49.072;8.804;2022-09-29T16:02:53;15.50;80.30
8910;DHT22;4490;49.072;8.804;2022-09-29T16:05:13;15.40;80.80
8910;DHT22;4490;49.072;8.804;2022-09-29T16:07:49;15.40;81.50
8910;DHT22;4490;49.072;8.804;2022-09-29T16:10:21;15.40;82.20
8910;DHT22;4490;49.072;8.804;2022-09-29T16:13:03;15.40;82.70
8910;DHT22;4490;49.072;8.804;2022-09-29T16:15:40;15.30;83.00
8910;DHT22;4490;49.072;8.804;2022-09-29T16:18:29;15.30;83.30
8910;DHT22;4490;49.072;8.804;2022-09-29T16:20:56;15.20;83.60
8910;DHT22;4490;49.072;8.804;2022-09-29T16:23:27;15.10;83.70
8910;DHT22;4490;49.072;8.804;2022-09-29T16:28:36;15.00;84.60
8910;DHT22;4490;49.072;8.804;2022-09-29T16:31:15;14.90;84.70
8910;DHT22;4490;49.072;8.804;2022-09-29T16:33:44;14.80;85.00
8910;DHT22;4490;49.072;8.804;2022-09-29T16:36:17;14.70;85.20
8910;DHT22;4490;49.072;8.804;2022-09-29T16:38:45;14.70;85.50
8910;DHT22;4490;49.072;8.804;2022-09-29T16:41:33;14.60;85.60
8910;DHT22;4490;49.072;8.804;2022-09-29T16:44:34;14.50;85.80
8910;DHT22;4490;49.072;8.804;2022-09-29T16:47:16;14.40;86.10
8910;DHT22;4490;49.072;8.804;2022-09-29T16:49:58;14.40;86.30
8910;DHT22;4490;49.072;8.804;2022-09-29T16:52:31;14.30;86.50
8910;DHT22;4490;49.072;8.804;2022-09-29T16:57:59;14.10;87.10
8910;DHT22;4490;49.072;8.804;2022-09-29T17:00:25;14.00;87.30
8910;DHT22;4490;49.072;8.804;2022-09-29T17:02:52;13.90;87.40
8910;DHT22;4490;49.072;8.804;2022-09-29T17:05:20;13.90;87.70
8910;DHT22;4490;49.072;8.804;2022-09-29T17:07:46;13.80;87.90
8910;DHT22;4490;49.072;8.804;2022-09-29T17:10:21;13.70;88.20
8910;DHT22;4490;49.072;8.804;2022-09-29T17:12:47;13.70;88.60
8910;DHT22;4490;49.072;8.804;2022-09-29T17:15:13;13.60;88.60
8910;DHT22;4490;49.072;8.804;2022-09-29T17:17:39;13.60;88.80
8910;DHT22;4490;49.072;8.804;2022-09-29T17:20:19;13.50;89.00
8910;DHT22;4490;49.072;8.804;2022-09-29T17:22:46;13.50;89.30
8910;DHT22;4490;49.072;8.804;2022-09-29T17:25:13;13.50;89.40
8910;DHT22;4490;49.072;8.804;2022-09-29T17:27:42;13.40;89.60
8910;DHT22;4490;49.072;8.804;2022-09-29T17:30:26;13.40;89.90
8910;DHT22;4490;49.072;8.804;2022-09-29T17:32:54;13.30;90.00
8910;DHT22;4490;49.072;8.804;2022-09-29T17:35:26;13.30;90.10
8910;DHT22;4490;49.072;8.804;2022-09-29T17:37:52;13.30;90.20
8910;DHT22;4490;49.072;8.804;2022-09-29T17:40:26;13.30;90.20
8910;DHT22;4490;49.072;8.804;2022-09-29T17:42:54;13.20;90.30
8910;DHT22;4490;49.072;8.804;2022-09-29T17:45:23;13.10;90.40
8910;DHT22;4490;49.072;8.804;2022-09-29T17:47:50;13.10;90.50
8910;DHT22;4490;49.072;8.804;2022-09-29T17:50:35;13.10;90.70
8910;DHT22;4490;49.072;8.804;2022-09-29T17:53:05;13.00;90.90
8910;DHT22;4490;49.072;8.804;2022-09-29T17:55:32;13.00;91.00
8910;DHT22;4490;49.072;8.804;2022-09-29T17:57:59;12.90;91.20
8910;DHT22;4490;49.072;8.804;2022-09-29T18:00:35;12.90;91.40
8910;DHT22;4490;49.072;8.804;2022-09-29T18:03:06;12.90;91.60
8910;DHT22;4490;49.072;8.804;2022-09-29T18:05:34;12.90;91.80
8910;DHT22;4490;49.072;8.804;2022-09-29T18:08:01;12.90;92.00
8910;DHT22;4490;49.072;8.804;2022-09-29T18:10:53;12.90;92.20
8910;DHT22;4490;49.072;8.804;2022-09-29T18:13:24;12.90;92.40
8910;DHT22;4490;49.072;8.804;2022-09-29T18:15:51;12.90;92.50
8910;DHT22;4490;49.072;8.804;2022-09-29T18:18:19;12.90;92.60
8910;DHT22;4490;49.072;8.804;2022-09-29T18:20:45;12.90;92.70
8910;DHT22;4490;49.072;8.804;2022-09-29T18:23:14;12.90;92.90
8910;DHT22;4490;49.072;8.804;2022-09-29T18:25:41;12.90;92.90
8910;DHT22;4490;49.072;8.804;2022-09-29T18:28:11;13.00;93.00
8910;DHT22;4490;49.072;8.804;2022-09-29T18:30:37;13.00;92.90
8910;DHT22;4490;49.072;8.804;2022-09-29T18:33:11;13.00;93.10
8910;DHT22;4490;49.072;8.804;2022-09-29T18:35:39;13.00;93.20
8910;DHT22;4490;49.072;8.804;2022-09-29T18:38:06;12.90;93.40
8910;DHT22;4490;49.072;8.804;2022-09-29T18:40:32;12.90;93.70
8910;DHT22;4490;49.072;8.804;2022-09-29T18:42:57;12.90;94.00
8910;DHT22;4490;49.072;8.804;2022-09-29T18:45:29;12.90;94.30
8910;DHT22;4490;49.072;8.804;2022-09-29T18:47:57;12.90;94.30
8910;DHT22;4490;49.072;8.804;2022-09-29T18:50:39;13.00;94.50
8910;DHT22;4490;49.072;8.804;2022-09-29T18:53:07;13.00;94.50
8910;DHT22;4490;49.072;8.804;2022-09-29T18:55:33;13.00;94.50
8910;DHT22;4490;49.072;8.804;2022-09-29T18:57:59;12.90;94.60
8910;DHT22;4490;49.072;8.804;2022-09-29T19:00:28;12.90;94.60
8910;DHT22;4490;49.072;8.804;2022-09-29T19:02:55;12.90;94.70
8910;DHT22;4490;49.072;8.804;2022-09-29T19:05:25;12.90;94.80
8910;DHT22;4490;49.072;8.804;2022-09-29T19:07:55;12.90;95.00
8910;DHT22;4490;49.072;8.804;2022-09-29T19:10:23;12.80;95.00
8910;DHT22;4490;49.072;8.804;2022-09-29T19:12:49;12.80;95.20
8910;DHT22;4490;49.072;8.804;2022-09-29T19:15:19;12.70;95.40
8910;DHT22;4490;49.072;8.804;2022-09-29T19:17:46;12.70;95.60
8910;DHT22;4490;49.072;8.804;2022-09-29T19:20:13;12.80;95.60
8910;DHT22;4490;49.072;8.804;2022-09-29T19:22:40;12.70;95.40
8910;DHT22;4490;49.072;8.804;2022-09-29T19:25:15;12.70;95.60
8910;DHT22;4490;49.072;8.804;2022-09-29T19:27:41;12.70;95.60
8910;DHT22;4490;49.072;8.804;2022-09-29T19:30:12;12.70;95.60
8910;DHT22;4490;49.072;8.804;2022-09-29T19:32:38;12.70;95.60
8910;DHT22;4490;49.072;8.804;2022-09-29T19:35:10;12.70;95.60
8910;DHT22;4490;49.072;8.804;2022-09-29T19:37:36;12.70;95.60